Terminal Aerodrome Forecast
Issued by NWS Greer, SC

Home | Current Version | Previous Version | Text Only | Print | Product List | Glossary On
Versions: 1 2 3 4 5 6 7 8 9 10 11 12 13
654
FTUS42 KGSP 291735
TAFGSP
TAF
KGSP 291735Z 2918/3018 03009KT P6SM -SHRA OVC070
     FM292300 03008KT P6SM VCSH OVC070
     FM300300 01006KT P6SM SCT060 BKN100
     FM301000 36004KT P6SM SCT120=

USA.gov is the U.S. government's official web portal to all federal, state and local government web resources and services.